Commit Graph
100 Commits
Author SHA1 Message Date
Kris Maglione 86ccda470d Relase Pentadactyl 1.0rc1. 2011-12-20 00:38:08 -05:00
Kris Maglione 924aa8bf2d Fix bug. 2011-12-09 21:03:26 -05:00
Kris Maglione 482c072068 Only include active downloads in :downloads totals. Closes issue #726. 2011-12-05 17:17:59 -05:00
Kris Maglione 0b03a64e70 Closes issue #722. 2011-12-05 17:05:43 -05:00
Kris Maglione 5eff71ec5a Fix some key processing glitchiness. Closes issue #730. 2011-12-05 16:55:42 -05:00
Kris Maglione 7a1ffa5b55 Strip utm_* crud from URLs on yank. 2011-12-04 12:07:13 -05:00
Kris Maglione e9b287c83c Fix useragent.js bug. 2011-12-01 14:29:53 -05:00
Kris Maglione 81271ab4ef Closes issue #729. 2011-11-28 08:46:07 -05:00
Kris Maglione 42aa15d786 [pentadactyl] Bump maxVersion. 2011-11-27 11:44:41 -05:00
Kris Maglione ecbc13e575 Kill strict mode for the moment. 2011-11-27 11:44:19 -05:00
Kris Maglione 2ac04ff220 Fix some rangefind bugginess. 2011-11-25 10:22:44 -05:00
Kris Maglione 7d939adf11 Add 'yankshort' option. 2011-11-25 09:52:33 -05:00
Kris Maglione bdd382a613 Punctuation. 2011-11-06 13:34:54 -05:00
Kris Maglione 4c402205bb Fix 'popups' safeSet message. 2011-11-05 10:45:14 -04:00
Kris Maglione 7b38c4a434 Grr. 2011-11-05 00:05:44 -04:00
Kris Maglione abef44ea98 First stab at bookmark keyword suggestions support. 2011-11-02 22:25:43 -04:00
Kris Maglione 02fca3e9bc 'hinttags' magic. 2011-10-31 23:11:35 -04:00
Kris Maglione 11deba65e9 Yank short URL with 'y' if provided. 2011-10-27 01:09:13 -04:00
Kris Maglione e50726ae01 Fix visual bell completion list sizing thing. 2011-10-26 01:10:12 -04:00
Kris Maglione efb39f26a8 Remove 'for each' usage in shared globals. 2011-10-25 21:22:31 -04:00
Kris Maglione 19d74ecfff Fix bug. 2011-10-25 21:14:21 -04:00
Kris Maglione ee5f1a251c Assertions yay. 2011-10-25 18:06:14 -04:00
Kris Maglione 952f41fc15 Fix 'history'=0. 2011-10-25 17:50:19 -04:00
Kris Maglione f3758c1e1d Security magic. 2011-10-25 17:47:33 -04:00
Kris Maglione dcad48c23b Alias ? to <S-Slash>. Closes issue #654. 2011-10-25 17:14:37 -04:00
Kris Maglione 9886875927 Don't walk through dot-directories when loading plugins. Grr. 2011-10-24 11:21:06 -04:00
Kris Maglione 6ef8867d16 Closes issue #699. 2011-10-23 23:41:40 -04:00
Kris Maglione 854eda4690 Closes issue #698. 2011-10-23 23:16:19 -04:00
Kris Maglione 933f490817 More comprehensive :jumps. 2011-10-20 06:04:10 -04:00
Kris Maglione 419d9b61f8 Simplifyification. 2011-10-19 22:45:55 -04:00
Kris Maglione e43d81730e Serialize :hi -link. 2011-10-19 22:38:35 -04:00
Kris Maglione be3218dcfb nsITimer is bloody insane. 2011-10-19 07:16:15 -04:00
Kris Maglione e75de734ed RangeFind highlight cleanup stuff and stuff. 2011-10-17 21:11:55 -04:00
Kris Maglione 3ef14e8c3c Better DOM#is(). Yay. 2011-10-16 15:06:37 -04:00
Kris Maglione 0029f7bd16 Fallback to useable clipboard on Windows. Closes issue #690. 2011-10-13 15:39:18 -04:00
Kris Maglione 5b8fa19a3a Fix completion scrolling issue. 2011-10-11 14:32:28 -04:00
Kris Maglione 7508b9f3fd Fix async completion bug. 2011-10-10 17:37:27 -04:00
Kris Maglione cd06d2454f Zoom value constraints are silly. 2011-10-10 13:38:38 -04:00
Kris Maglione f63a4a31f1 Workaround for whiny pansies with old saved zoom settings who are too lazy to update them. 2011-10-10 13:07:32 -04:00
Kris Maglione f53aa2cbed Fix smooth scrolling issue. 2011-10-10 12:46:56 -04:00
Kris Maglione 0647ec14bb Fix Hints mode mappings. 2011-10-10 04:48:31 -04:00
Kris Maglione 798f26c746 Hint processing mapping state magic stuff. 2011-10-10 02:48:05 -04:00
Kris Maglione 400ec6244b Register and selection magic. 2011-10-09 23:52:00 -04:00
Kris Maglione d444435600 Zoom stuff. 2011-10-09 20:49:34 -04:00
Kris Maglione 40d9642cc3 Text zoom level rememberization magic. 2011-10-09 20:01:19 -04:00
Kris Maglione 06135d97db Fix marks offset issue. 2011-10-09 19:10:51 -04:00
Kris Maglione 449ff06fde Fix typo. 2011-10-09 12:02:17 -04:00
Kris Maglione cd9605af3b Enable v_y in caret mode. Closes issue #685. 2011-10-09 05:34:18 -04:00
Kris Maglione 0307817e4d Don't commafy charlist options in :set output. 2011-10-08 04:36:14 -04:00
Kris Maglione be52494f4f Show function prototype in :js completion even when waiting on key press. 2011-10-07 08:31:36 -04:00
Kris Maglione e5f4cae490 Fix some cleanup issues with multiple windows. 2011-10-07 07:57:08 -04:00
Kris Maglione f62cc127cd Add -group flag to :tabattach. 2011-10-07 07:22:36 -04:00
Kris Maglione 3126683b46 Fix issue with crufty old mapping aliases. 2011-10-07 07:07:49 -04:00
Kris Maglione 631b309fad Backout part of 30a75c5eb277. 2011-10-07 06:52:52 -04:00
Kris Maglione 49adaaf6ab Make sure we end the transaction for the correct editor. Closes issue #683. 2011-10-07 05:13:04 -04:00
Kris Maglione 40a23fc7cd Closes issue #449. 2011-10-07 03:17:52 -04:00
Kris Maglione 7028b8b84e Don't save history and completion changes in kill ring. 2011-10-07 02:03:16 -04:00
Kris Maglione bf4a5940d9 Update more legacy completion handling code. Make :feedkeys :foo<Tab> work as expected with asynchronous results. Add docs. 2011-10-07 01:58:53 -04:00
Kris Maglione 95dd94f5e4 Minor cleanup and dead code removal. 2011-10-06 23:03:05 -04:00
Kris Maglione ddf4d02244 Fix some selection mode change stupidiocy with noinsertmode set. 2011-10-06 10:58:31 -04:00
Kris Maglione 1e3a5f37c9 Add t_<C-a> and t_<C-x>. Fix some mungeRange brokenness with selectEnd and selection size changes. 2011-10-06 10:40:33 -04:00
Kris Maglione d419f31a7b Damn it. 2011-10-06 09:26:39 -04:00
Kris Maglione 40104c2b8b macros ≡ macros. 2011-10-06 08:56:13 -04:00
Kris Maglione 0cf53f8181 XUL cache prevents DOMContentLoaded. Grr. Closes issue #649. 2011-10-06 07:22:39 -04:00
Kris Maglione f2e5a8d09c Remove evidence of my channeling of the Bee... eleventy one eleven! 2011-10-06 06:51:01 -04:00
Kris Maglione f65aaea14d Cleanup main.jsm. Add (currently disabled) command cacheing. 2011-10-06 06:39:41 -04:00
Kris Maglione 0319712917 Fix mangled commit. 2011-10-06 03:57:38 -04:00
Kris Maglione 4bc779fe7c Better temp file names for gF and friends. 2011-10-06 02:22:50 -04:00
Kris Maglione adea42d882 Closes issue #681. 2011-10-06 01:15:17 -04:00
Kris Maglione 1b781416c9 Register support with a crude kill ring. 2011-10-06 01:02:11 -04:00
Kris Maglione 09a3bfcaac Add c_<compl-{next,prev}-group> help entries. 2011-10-05 20:09:22 -04:00
Kris Maglione b43d9f914c Alias c_<C-Tab> to c_<A-f>. 2011-10-05 19:57:39 -04:00
Kris Maglione f0028647c3 Closes issue #680. 2011-10-05 17:12:43 -04:00
Kris Maglione 942aa9214a Make caret visible while selected when in Visual Text Edit mode. 2011-10-05 07:27:21 -04:00
Kris Maglione e498c0662a Fix bug? 2011-10-05 05:45:14 -04:00
Kris Maglione c6ac63b5f9 Add missing semicolon thus rectifying all grokability issues with messages.export. 2011-10-05 05:36:43 -04:00
Kris Maglione 31f9e43305 Move variable-width status column after the controls column in :addons. Dim inactive add-ons. 2011-10-05 05:33:06 -04:00
Kris Maglione 6a60b54cce Non-broken :dia downloads. 2011-10-05 05:11:35 -04:00
Kris Maglione bb0c5d3e95 Kill :dia errorconsole as it does the same thing as :dia console in practice. 2011-10-05 05:02:09 -04:00
Kris Maglione f7493160ca Kill :dia import. 2011-10-05 05:00:31 -04:00
Kris Maglione 35bc2fb201 Add messages.export. 2011-10-05 04:29:33 -04:00
Kris Maglione b9ecc8a1f0 Make sure selection is not null after buffer.resetCaret. 2011-10-05 04:16:34 -04:00
Kris Maglione 5aa365b7a9 Try grabbing Content-Disposition from a HEAD request for the save link completion list. Localify descriptions. 2011-10-05 03:52:02 -04:00
Kris Maglione 59bf923305 Add o_c, o_d, and o_y. Fix selection mode change magic bug. 2011-10-05 01:42:44 -04:00
Kris Maglione 4722c8011e Add v_o. 2011-10-05 01:13:30 -04:00
Kris Maglione 9829b5e059 Fix some non-Text Edit mode f/F/t/T issues. 2011-10-05 00:51:05 -04:00
Kris Maglione db579a1ea5 Use ranges for editor.findChar. 2011-10-05 00:23:01 -04:00
Kris Maglione 1af7252f34 Sanify editor.pasteClipboard. 2011-10-04 23:15:58 -04:00
Kris Maglione 313b31756b Sanify editor.expandAbbreviation. Support undo. 2011-10-04 23:05:38 -04:00
Kris Maglione 603b05ce18 Add gu, gU. Fix some editor issues and annoyances. Better undo support. Don't push TEXT_EDIT mode multiple times with noinsertmode set. Update NEWS. 2011-10-04 22:45:59 -04:00
Kris Maglione 3296675dcc Closes issue #400. 2011-10-04 18:00:57 -04:00
Kris Maglione fad8224c45 Remove leftover dump statement. 2011-10-04 08:38:08 -04:00
Kris Maglione 9881403ddb Add some editor assertions. 2011-10-04 08:20:45 -04:00
Kris Maglione a69eedc980 Automagical macro command completion. 2011-10-04 08:16:05 -04:00
Kris Maglione a96716c2d8 Fix caret mode bug. 2011-10-04 07:02:51 -04:00
Kris Maglione c36c9d6185 Remove beforeunload handler. 2011-10-04 06:44:34 -04:00
Kris Maglione 8795c093f1 Fix some of the more horrendous editor.js code.
--HG--
extra : rebase_source : 1675c92e880249d90a59576291254724fb863c4e
2011-10-04 06:32:30 -04:00
Kris Maglione b98c2e0906 Argh. Fix incomplete commit. 2011-10-04 03:08:00 -04:00
Kris Maglione 3693c79f13 Fix <A-Tab> 2011-10-04 03:05:39 -04:00
Kris Maglione 0c1fc4f421 Be more assiduous in scrollIntoView. Don't pass it off to the element, which winds up mucking everything up. 2011-10-04 02:24:56 -04:00